createdAt,value
2019-05-06T00:00:01.515Z,5.27
2019-05-06T00:01:01.504Z,5.29
2019-05-06T00:02:01.499Z,5.24
2019-05-06T00:03:01.499Z,5.17
2019-05-06T00:04:01.486Z,5.19
2019-05-06T00:05:03.995Z,5.19
2019-05-06T00:06:01.463Z,5.17
2019-05-06T00:07:01.438Z,5.06
2019-05-06T00:08:03.753Z,5.12
2019-05-06T00:09:01.419Z,5.09
2019-05-06T00:10:01.410Z,5.02
2019-05-06T00:11:01.421Z,5.02
2019-05-06T00:12:03.904Z,5.06
2019-05-06T00:13:01.380Z,4.97
2019-05-06T00:14:03.765Z,4.87
2019-05-06T00:15:03.752Z,4.90
2019-05-06T00:16:01.340Z,4.94
2019-05-06T00:17:03.728Z,4.93
2019-05-06T00:18:01.321Z,4.90
2019-05-06T00:19:01.320Z,4.86
2019-05-06T00:20:04.111Z,4.79
2019-05-06T00:21:01.287Z,4.80
2019-05-06T00:22:01.307Z,4.80
2019-05-06T00:23:01.277Z,4.80
2019-05-06T00:24:01.254Z,4.74
2019-05-06T00:25:01.265Z,4.74
2019-05-06T00:26:01.237Z,4.71
2019-05-06T00:27:01.227Z,4.67
2019-05-06T00:28:01.212Z,4.68
2019-05-06T00:29:01.206Z,4.71
2019-05-06T00:30:01.222Z,4.71
2019-05-06T00:31:12.193Z,4.59
2019-05-06T00:32:04.289Z,4.65
2019-05-06T00:33:01.171Z,4.67
2019-05-06T00:34:01.158Z,4.53
2019-05-06T00:35:01.136Z,4.59
2019-05-06T00:36:01.146Z,4.67
2019-05-06T00:37:01.124Z,4.51
2019-05-06T00:38:01.141Z,4.50
2019-05-06T00:39:01.098Z,4.57
2019-05-06T00:40:01.088Z,4.59
2019-05-06T00:41:01.072Z,4.51
2019-05-06T00:42:01.063Z,4.56
2019-05-06T00:43:01.049Z,4.50
2019-05-06T00:44:01.057Z,4.50
2019-05-06T00:45:01.049Z,4.59
2019-05-06T00:46:01.023Z,4.56
2019-05-06T00:47:01.008Z,4.56
2019-05-06T00:48:01.003Z,4.50
2019-05-06T00:49:01.002Z,4.51
2019-05-06T00:50:00.981Z,4.50
2019-05-06T00:51:00.971Z,4.53
2019-05-06T00:52:00.952Z,4.44
2019-05-06T00:53:00.942Z,4.50
2019-05-06T00:54:00.948Z,4.36
2019-05-06T00:55:00.929Z,4.34
2019-05-06T00:56:00.912Z,4.44
2019-05-06T00:57:00.901Z,4.35
2019-05-06T00:58:00.902Z,4.28
2019-05-06T00:59:00.904Z,4.28
2019-05-06T01:00:00.869Z,4.26
2019-05-06T01:01:00.865Z,4.28
2019-05-06T01:02:00.852Z,4.24
2019-05-06T01:03:00.837Z,4.25
2019-05-06T01:04:00.831Z,4.26
2019-05-06T01:05:00.829Z,4.18
2019-05-06T01:06:00.808Z,4.16
2019-05-06T01:07:00.792Z,4.17
2019-05-06T01:08:00.781Z,4.18
2019-05-06T01:09:00.772Z,4.13
2019-05-06T01:10:00.781Z,4.08
2019-05-06T01:11:00.757Z,4.06
2019-05-06T01:12:00.737Z,4.06
2019-05-06T01:13:00.752Z,4.00
2019-05-06T01:14:00.718Z,4.07
2019-05-06T01:15:00.711Z,4.07
2019-05-06T01:16:00.698Z,4.06
2019-05-06T01:17:00.687Z,4.06
2019-05-06T01:18:00.674Z,4.04
2019-05-06T01:19:00.679Z,4.02
2019-05-06T01:20:00.678Z,4.00
2019-05-06T01:21:00.645Z,4.00
2019-05-06T01:22:00.634Z,3.98
2019-05-06T01:23:00.626Z,3.96
2019-05-06T01:24:00.611Z,3.98
2019-05-06T01:25:00.629Z,3.89
2019-05-06T01:26:00.588Z,3.88
2019-05-06T01:27:00.578Z,3.96
2019-05-06T01:28:00.566Z,4.00
2019-05-06T01:29:00.554Z,3.86
2019-05-06T01:30:00.547Z,3.96
2019-05-06T01:31:00.547Z,3.89
2019-05-06T01:32:00.523Z,3.96
2019-05-06T01:33:00.519Z,4.04
2019-05-06T01:34:00.502Z,4.00
2019-05-06T01:35:00.536Z,4.10
2019-05-06T01:36:00.481Z,4.02
2019-05-06T01:37:00.472Z,3.90
2019-05-06T01:38:00.459Z,3.89
2019-05-06T01:39:00.450Z,3.86
2019-05-06T01:40:00.439Z,4.00
2019-05-06T01:41:00.464Z,4.00
2019-05-06T01:42:00.421Z,3.95
2019-05-06T01:43:00.403Z,3.86
2019-05-06T01:44:00.400Z,3.95
2019-05-06T01:45:00.383Z,3.92
2019-05-06T01:46:00.383Z,3.89
2019-05-06T01:47:00.375Z,3.82
2019-05-06T01:48:00.351Z,3.84
2019-05-06T01:49:00.342Z,3.82
2019-05-06T01:50:00.339Z,3.77
2019-05-06T01:51:00.318Z,3.74
2019-05-06T01:52:00.320Z,3.75
2019-05-06T01:53:00.295Z,3.75
2019-05-06T01:54:00.284Z,3.80
2019-05-06T01:55:00.276Z,3.68
2019-05-06T01:56:00.275Z,3.67
2019-05-06T01:57:00.252Z,3.71
2019-05-06T01:58:00.260Z,3.59
2019-05-06T01:59:00.234Z,3.64
2019-05-06T02:00:00.231Z,3.59
2019-05-06T02:01:00.231Z,3.63
2019-05-06T02:02:01.313Z,3.59
2019-05-06T02:03:00.205Z,3.54
2019-05-06T02:04:00.178Z,3.56
2019-05-06T02:05:00.182Z,3.54
2019-05-06T02:06:00.162Z,3.63
2019-05-06T02:07:00.146Z,3.46
2019-05-06T02:08:00.136Z,3.54
2019-05-06T02:09:00.121Z,3.52
2019-05-06T02:10:00.122Z,3.46
2019-05-06T02:11:00.105Z,3.52
2019-05-06T02:12:00.093Z,3.42
2019-05-06T02:13:00.093Z,3.45
2019-05-06T02:14:00.096Z,3.42
2019-05-06T02:15:00.057Z,3.44
2019-05-06T02:16:00.044Z,3.50
2019-05-06T02:17:00.032Z,3.39
2019-05-06T02:18:00.023Z,3.49
2019-05-06T02:19:00.012Z,3.37
2019-05-06T02:20:00.016Z,3.35
2019-05-06T02:21:00.008Z,3.35
2019-05-06T02:21:59.981Z,3.44
2019-05-06T02:22:59.989Z,3.39
2019-05-06T02:23:59.961Z,3.33
2019-05-06T02:24:59.965Z,3.31
2019-05-06T02:25:59.935Z,3.30
2019-05-06T02:26:59.930Z,3.31
2019-05-06T02:27:59.922Z,3.23
2019-05-06T02:28:59.918Z,3.28
2019-05-06T02:29:59.891Z,3.41
2019-05-06T02:30:59.886Z,3.37
2019-05-06T02:32:15.782Z,3.34
2019-05-06T02:33:00.866Z,3.39
2019-05-06T02:33:59.863Z,3.39
2019-05-06T02:34:59.838Z,3.39
2019-05-06T02:35:59.841Z,3.34
2019-05-06T02:36:59.815Z,3.31
2019-05-06T02:37:59.805Z,3.39
2019-05-06T02:38:59.807Z,3.31
2019-05-06T02:39:59.784Z,3.37
2019-05-06T02:40:59.780Z,3.35
2019-05-06T02:41:59.764Z,3.37
2019-05-06T02:43:02.977Z,3.42
2019-05-06T02:43:59.753Z,3.37
2019-05-06T02:44:59.738Z,3.41
2019-05-06T02:45:59.737Z,3.52
2019-05-06T02:47:02.714Z,3.49
2019-05-06T02:47:59.700Z,3.50
2019-05-06T02:48:59.689Z,3.41
2019-05-06T02:49:59.677Z,3.52
2019-05-06T02:50:59.682Z,3.52
2019-05-06T02:52:02.801Z,3.46
2019-05-06T02:53:02.514Z,3.59
2019-05-06T02:53:59.638Z,3.62
2019-05-06T02:54:59.633Z,3.59
2019-05-06T02:55:59.613Z,3.53
2019-05-06T02:56:59.603Z,3.60
2019-05-06T02:58:02.710Z,3.57
2019-05-06T02:58:59.593Z,3.59
2019-05-06T02:59:59.571Z,3.68
2019-05-06T03:01:03.190Z,3.59
2019-05-06T03:02:03.051Z,3.62
2019-05-06T03:02:59.536Z,3.70
2019-05-06T03:03:59.537Z,3.70
2019-05-06T03:04:59.550Z,3.71
2019-05-06T03:05:59.504Z,3.70
2019-05-06T03:06:59.512Z,3.71
2019-05-06T03:07:59.484Z,3.70
2019-05-06T03:08:59.471Z,3.71
2019-05-06T03:09:59.459Z,3.71
2019-05-06T03:10:59.461Z,3.62
2019-05-06T03:11:59.448Z,3.75
2019-05-06T03:12:59.449Z,3.75
2019-05-06T03:13:59.422Z,3.68
2019-05-06T03:14:59.416Z,3.70
2019-05-06T03:15:59.396Z,3.63
2019-05-06T03:16:59.394Z,3.57
2019-05-06T03:17:59.397Z,3.62
2019-05-06T03:18:59.366Z,3.54
2019-05-06T03:19:59.363Z,3.57
2019-05-06T03:20:59.355Z,3.56
2019-05-06T03:21:59.340Z,3.54
2019-05-06T03:22:59.350Z,3.56
2019-05-06T03:23:59.321Z,3.52
2019-05-06T03:24:59.323Z,3.57
2019-05-06T03:25:59.313Z,3.45
2019-05-06T03:26:59.309Z,3.54
2019-05-06T03:27:59.267Z,3.49
2019-05-06T03:28:59.270Z,3.45
2019-05-06T03:29:59.249Z,3.46
2019-05-06T03:30:59.236Z,3.45
2019-05-06T03:31:59.230Z,3.41
2019-05-06T03:33:35.422Z,3.44
2019-05-06T03:34:24.468Z,3.45
2019-05-06T03:35:23.029Z,3.50
2019-05-06T03:36:07.253Z,3.46
2019-05-06T03:37:00.171Z,3.44
2019-05-06T03:37:59.158Z,3.45
2019-05-06T03:38:59.159Z,3.50
2019-05-06T03:39:59.140Z,3.50
2019-05-06T03:40:59.128Z,3.44
2019-05-06T03:41:59.139Z,3.52
2019-05-06T03:42:59.118Z,3.44
2019-05-06T03:43:59.098Z,3.50
2019-05-06T03:44:59.103Z,3.44
2019-05-06T03:45:59.072Z,3.44
2019-05-06T03:46:59.070Z,3.44
2019-05-06T03:47:59.055Z,3.46
2019-05-06T03:48:59.042Z,3.45
2019-05-06T03:49:59.046Z,3.42
2019-05-06T03:50:59.019Z,3.49
2019-05-06T03:51:59.013Z,3.41
2019-05-06T03:52:59.013Z,3.35
2019-05-06T03:53:58.987Z,3.46
2019-05-06T03:54:58.981Z,3.45
2019-05-06T03:55:58.980Z,3.54
2019-05-06T03:56:58.956Z,3.52
2019-05-06T03:57:58.955Z,3.45
2019-05-06T03:58:58.936Z,3.45
2019-05-06T03:59:58.947Z,3.54
2019-05-06T04:00:58.953Z,3.50
2019-05-06T04:01:58.903Z,3.50
2019-05-06T04:02:58.911Z,3.52
2019-05-06T04:03:58.883Z,3.56
2019-05-06T04:04:58.886Z,3.53
2019-05-06T04:05:58.858Z,3.68
2019-05-06T04:06:58.849Z,3.59
2019-05-06T04:07:58.847Z,3.57
2019-05-06T04:08:58.830Z,3.59
2019-05-06T04:09:58.829Z,3.59
2019-05-06T04:10:58.811Z,3.57
2019-05-06T04:11:58.794Z,3.63
2019-05-06T04:12:58.784Z,3.62
2019-05-06T04:13:58.781Z,3.70
2019-05-06T04:14:58.774Z,3.71
2019-05-06T04:15:58.753Z,3.71
2019-05-06T04:16:58.754Z,3.75
2019-05-06T04:17:58.729Z,3.72
2019-05-06T04:18:58.722Z,3.74
2019-05-06T04:19:58.709Z,3.74
2019-05-06T04:20:58.716Z,3.74
2019-05-06T04:21:58.689Z,3.74
2019-05-06T04:22:58.675Z,3.71
2019-05-06T04:23:58.665Z,3.74
2019-05-06T04:24:58.661Z,3.70
2019-05-06T04:25:58.671Z,3.68
2019-05-06T04:26:58.632Z,3.72
2019-05-06T04:27:58.618Z,3.74
2019-05-06T04:28:58.608Z,3.71
2019-05-06T04:29:58.600Z,3.74
2019-05-06T04:30:58.593Z,3.78
2019-05-06T04:31:58.600Z,3.59
2019-05-06T04:32:58.567Z,3.59
2019-05-06T04:34:09.927Z,3.70
2019-05-06T04:34:59.573Z,3.71
2019-05-06T04:35:58.534Z,3.68
2019-05-06T04:36:58.536Z,3.62
2019-05-06T04:37:58.513Z,3.68
2019-05-06T04:38:58.517Z,3.72
2019-05-06T04:39:58.494Z,3.70
2019-05-06T04:40:58.480Z,3.67
2019-05-06T04:41:58.470Z,3.77
2019-05-06T04:42:58.463Z,3.75
2019-05-06T04:43:58.462Z,3.72
2019-05-06T04:44:58.448Z,3.72
2019-05-06T04:45:58.432Z,3.77
2019-05-06T04:46:58.419Z,3.78
2019-05-06T04:47:58.401Z,3.77
2019-05-06T04:48:58.413Z,3.71
2019-05-06T04:49:58.380Z,3.75
2019-05-06T04:50:58.373Z,3.78
2019-05-06T04:51:58.399Z,3.72
2019-05-06T04:52:58.345Z,3.82
2019-05-06T04:53:58.374Z,3.92
2019-05-06T04:54:58.341Z,3.80
2019-05-06T04:55:58.316Z,3.86
2019-05-06T04:56:58.320Z,3.89
2019-05-06T04:57:58.294Z,3.96
2019-05-06T04:58:58.287Z,3.92
2019-05-06T04:59:58.306Z,3.92
2019-05-06T05:00:58.262Z,3.92
2019-05-06T05:01:58.265Z,3.95
2019-05-06T05:02:58.261Z,3.92
2019-05-06T05:03:58.236Z,3.95
2019-05-06T05:04:58.217Z,3.96
2019-05-06T05:06:01.755Z,3.96
2019-05-06T05:06:59.204Z,4.07
2019-05-06T05:07:58.199Z,4.08
2019-05-06T05:08:58.177Z,4.18
2019-05-06T05:09:58.161Z,4.13
2019-05-06T05:10:58.154Z,4.21
2019-05-06T05:11:58.142Z,4.26
2019-05-06T05:12:58.140Z,4.35
2019-05-06T05:13:58.120Z,4.34
2019-05-06T05:14:58.109Z,4.47
2019-05-06T05:15:58.108Z,4.50
2019-05-06T05:16:58.091Z,4.54
2019-05-06T05:17:58.094Z,4.65
2019-05-06T05:18:58.070Z,4.68
2019-05-06T05:19:58.063Z,4.75
2019-05-06T05:20:58.044Z,4.80
2019-05-06T05:21:58.039Z,4.80
2019-05-06T05:22:58.034Z,4.90
2019-05-06T05:23:58.026Z,4.88
2019-05-06T05:24:58.002Z,4.96
2019-05-06T05:25:57.994Z,5.01
2019-05-06T05:26:57.976Z,4.93
2019-05-06T05:27:57.965Z,4.97
2019-05-06T05:28:57.961Z,4.96
2019-05-06T05:29:57.956Z,5.08
2019-05-06T05:30:57.935Z,5.17
2019-05-06T05:31:57.924Z,5.12
2019-05-06T05:32:57.914Z,5.19
2019-05-06T05:33:57.908Z,5.15
2019-05-06T05:34:57.907Z,5.17
2019-05-06T05:35:57.890Z,5.20
2019-05-06T05:36:57.868Z,5.22
2019-05-06T05:37:57.856Z,5.08
2019-05-06T05:38:57.852Z,5.26
2019-05-06T05:39:57.848Z,5.15
2019-05-06T05:40:57.868Z,5.19
2019-05-06T05:41:57.821Z,5.29
2019-05-06T05:42:57.810Z,5.20
2019-05-06T05:43:57.792Z,5.29
2019-05-06T05:44:57.781Z,5.26
2019-05-06T05:45:57.774Z,5.24
2019-05-06T05:46:57.772Z,5.37
2019-05-06T05:47:57.748Z,5.45
2019-05-06T05:48:57.736Z,5.42
2019-05-06T05:49:57.726Z,5.42
2019-05-06T05:50:57.732Z,5.47
2019-05-06T05:51:57.718Z,5.44
2019-05-06T05:52:57.698Z,5.55
2019-05-06T05:53:57.684Z,5.52
2019-05-06T05:54:57.671Z,5.56
2019-05-06T05:55:57.660Z,5.56
2019-05-06T05:56:57.671Z,5.58
2019-05-06T05:57:57.645Z,5.62
2019-05-06T05:58:57.626Z,5.66
2019-05-06T05:59:57.614Z,5.66
2019-05-06T06:00:57.619Z,5.62
2019-05-06T06:01:57.607Z,5.63
2019-05-06T06:02:57.588Z,5.66
2019-05-06T06:03:57.571Z,5.63
2019-05-06T06:04:57.889Z,5.67
2019-05-06T06:05:57.564Z,5.58
2019-05-06T06:06:57.562Z,5.66
2019-05-06T06:07:57.548Z,5.67
2019-05-06T06:08:57.522Z,5.62
2019-05-06T06:09:57.511Z,5.67
2019-05-06T06:10:57.504Z,5.67
2019-05-06T06:11:57.486Z,5.75
2019-05-06T06:12:57.495Z,5.85
2019-05-06T06:13:57.478Z,5.83
2019-05-06T06:14:57.457Z,5.77
2019-05-06T06:15:57.445Z,5.70
2019-05-06T06:16:57.435Z,5.66
2019-05-06T06:17:57.443Z,5.70
2019-05-06T06:18:57.414Z,5.85
2019-05-06T06:19:57.401Z,5.80
2019-05-06T06:20:57.392Z,5.87
2019-05-06T06:21:57.385Z,5.88
2019-05-06T06:22:57.380Z,5.90
2019-05-06T06:23:57.373Z,5.99
2019-05-06T06:24:57.353Z,5.96
2019-05-06T06:25:57.339Z,5.92
2019-05-06T06:26:57.327Z,5.96
2019-05-06T06:27:57.318Z,6.03
2019-05-06T06:28:57.342Z,5.93
2019-05-06T06:29:57.294Z,6.02
2019-05-06T06:30:57.284Z,5.93
2019-05-06T06:31:57.279Z,6.08
2019-05-06T06:32:57.263Z,5.98
2019-05-06T06:33:57.250Z,5.99
2019-05-06T06:35:08.356Z,5.96
2019-05-06T06:35:58.230Z,6.06
2019-05-06T06:36:57.227Z,6.05
2019-05-06T06:37:57.215Z,6.05
2019-05-06T06:38:57.198Z,6.03
2019-05-06T06:39:57.206Z,6.03
2019-05-06T06:40:57.178Z,5.92
2019-05-06T06:41:57.165Z,5.90
2019-05-06T06:42:57.158Z,5.92
2019-05-06T06:43:57.161Z,5.93
2019-05-06T06:44:57.139Z,5.99
2019-05-06T06:45:57.122Z,6.02
2019-05-06T06:46:57.113Z,5.92
2019-05-06T06:47:57.103Z,6.03
2019-05-06T06:48:57.104Z,6.03
2019-05-06T06:49:57.102Z,6.10
2019-05-06T06:50:57.072Z,6.14
2019-05-06T06:51:57.057Z,6.06
2019-05-06T06:52:57.049Z,6.13
2019-05-06T06:53:57.056Z,6.16
2019-05-06T06:54:57.060Z,6.14
2019-05-06T06:55:57.015Z,6.24
2019-05-06T06:57:07.882Z,6.35
2019-05-06T06:57:57.997Z,6.35
2019-05-06T06:58:56.983Z,6.43
2019-05-06T06:59:56.977Z,6.45
2019-05-06T07:00:56.975Z,6.45
2019-05-06T07:01:56.964Z,6.53
2019-05-06T07:02:56.949Z,6.55
2019-05-06T07:03:56.926Z,6.57
2019-05-06T07:04:56.950Z,6.58
2019-05-06T07:05:56.907Z,6.64
2019-05-06T07:06:56.893Z,6.63
2019-05-06T07:07:56.883Z,6.71
2019-05-06T07:08:56.889Z,6.61
2019-05-06T07:09:56.860Z,6.71
2019-05-06T07:10:56.865Z,6.69
2019-05-06T07:11:56.836Z,6.69
2019-05-06T07:12:56.856Z,6.69
2019-05-06T07:13:56.816Z,6.68
2019-05-06T07:14:56.812Z,6.71
2019-05-06T07:15:56.796Z,6.71
2019-05-06T07:16:56.785Z,6.68
2019-05-06T07:17:56.775Z,6.82
2019-05-06T07:18:56.780Z,6.75
2019-05-06T07:19:56.758Z,6.76
2019-05-06T07:20:56.743Z,6.89
2019-05-06T07:21:56.742Z,6.86
2019-05-06T07:22:56.727Z,6.91
2019-05-06T07:23:56.713Z,6.91
2019-05-06T07:24:56.703Z,6.89
2019-05-06T07:25:56.692Z,7.00
2019-05-06T07:26:56.691Z,7.08
2019-05-06T07:27:56.665Z,7.12
2019-05-06T07:28:56.660Z,7.18
2019-05-06T07:29:56.644Z,7.19
2019-05-06T07:30:56.631Z,7.30
2019-05-06T07:31:56.636Z,7.23
2019-05-06T07:32:56.612Z,7.18
2019-05-06T07:33:56.597Z,7.21
2019-05-06T07:34:56.608Z,7.24
2019-05-06T07:35:56.586Z,7.30
2019-05-06T07:36:56.577Z,7.21
2019-05-06T07:37:56.553Z,7.15
2019-05-06T07:38:56.541Z,7.26
2019-05-06T07:39:56.550Z,7.32
2019-05-06T07:40:56.520Z,7.27
2019-05-06T07:41:56.528Z,7.23
2019-05-06T07:42:56.496Z,7.21
2019-05-06T07:43:56.490Z,7.19
2019-05-06T07:44:56.486Z,7.19
2019-05-06T07:45:56.466Z,7.16
2019-05-06T07:46:56.457Z,7.19
2019-05-06T07:47:56.457Z,7.16
2019-05-06T07:48:56.432Z,7.14
2019-05-06T07:49:56.425Z,7.21
2019-05-06T07:50:56.413Z,7.16
2019-05-06T07:51:56.399Z,7.23
2019-05-06T07:52:56.409Z,7.32
2019-05-06T07:53:56.377Z,7.44
2019-05-06T07:54:56.366Z,7.51
2019-05-06T07:55:56.361Z,7.42
2019-05-06T07:56:56.351Z,7.50
2019-05-06T07:57:56.335Z,7.47
2019-05-06T07:58:56.335Z,7.58
2019-05-06T07:59:56.312Z,7.55
2019-05-06T08:00:56.302Z,7.63
2019-05-06T08:01:56.291Z,7.73
2019-05-06T08:02:56.279Z,7.73
2019-05-06T08:03:56.270Z,7.77
2019-05-06T08:04:56.277Z,7.77
2019-05-06T08:05:58.757Z,7.95
2019-05-06T08:06:56.237Z,8.00
2019-05-06T08:07:56.229Z,7.94
2019-05-06T08:08:56.214Z,8.04
2019-05-06T08:09:56.231Z,8.04
2019-05-06T08:10:56.194Z,8.21
2019-05-06T08:11:56.186Z,8.27
2019-05-06T08:12:56.171Z,8.34
2019-05-06T08:13:56.162Z,8.43
2019-05-06T08:14:56.155Z,8.58
2019-05-06T08:15:56.171Z,8.68
2019-05-06T08:16:56.131Z,8.65
2019-05-06T08:17:56.121Z,8.76
2019-05-06T08:18:56.104Z,8.86
2019-05-06T08:19:56.131Z,8.89
2019-05-06T08:20:56.083Z,9.08
2019-05-06T08:21:56.072Z,9.32
2019-05-06T08:22:56.578Z,9.35
2019-05-06T08:23:56.050Z,9.40
2019-05-06T08:24:56.043Z,9.60
2019-05-06T08:26:09.186Z,9.71
2019-05-06T08:26:57.024Z,9.86
2019-05-06T08:27:56.022Z,9.91
2019-05-06T08:28:56.006Z,9.88
2019-05-06T08:29:55.983Z,9.83
2019-05-06T08:30:55.976Z,9.62
2019-05-06T08:31:55.968Z,9.62
2019-05-06T08:32:55.956Z,9.62
2019-05-06T08:33:55.976Z,9.42
2019-05-06T08:34:55.931Z,9.58
2019-05-06T08:36:08.962Z,9.63
2019-05-06T08:36:56.916Z,9.80
2019-05-06T08:37:55.900Z,9.89
2019-05-06T08:38:55.896Z,9.95
2019-05-06T08:39:55.895Z,9.81
2019-05-06T08:40:55.866Z,9.78
2019-05-06T08:41:55.857Z,9.77
2019-05-06T08:42:55.846Z,9.71
2019-05-06T08:43:55.847Z,9.60
2019-05-06T08:44:55.826Z,9.78
2019-05-06T08:45:55.834Z,9.89
2019-05-06T08:46:55.805Z,9.92
2019-05-06T08:47:55.790Z,9.99
2019-05-06T08:48:55.802Z,10.10
2019-05-06T08:49:55.784Z,10.09
2019-05-06T08:50:55.764Z,10.01
2019-05-06T08:51:55.763Z,10.02
2019-05-06T08:52:55.739Z,9.92
2019-05-06T08:53:55.744Z,9.95
2019-05-06T08:54:55.715Z,10.11
2019-05-06T08:55:55.728Z,10.24
2019-05-06T08:56:55.710Z,10.32
2019-05-06T08:57:55.695Z,10.47
2019-05-06T08:58:55.675Z,10.46
2019-05-06T08:59:55.678Z,10.35
2019-05-06T09:00:57.481Z,10.17
2019-05-06T09:01:55.639Z,9.92
2019-05-06T09:02:55.635Z,9.91
2019-05-06T09:04:08.717Z,10.06
2019-05-06T09:04:56.606Z,10.13
2019-05-06T09:05:55.626Z,10.29
2019-05-06T09:06:55.588Z,10.29
2019-05-06T09:07:55.592Z,10.36
2019-05-06T09:08:56.924Z,10.35
2019-05-06T09:09:55.556Z,10.47
2019-05-06T09:10:55.545Z,10.52
2019-05-06T09:11:55.535Z,10.39
2019-05-06T09:12:55.524Z,10.44
2019-05-06T09:13:55.510Z,10.43
2019-05-06T09:14:55.513Z,10.43
2019-05-06T09:15:55.499Z,10.26
2019-05-06T09:16:55.490Z,10.14
2019-05-06T09:17:55.467Z,10.04
2019-05-06T09:18:55.454Z,10.09
2019-05-06T09:19:55.446Z,10.02
2019-05-06T09:20:55.447Z,10.06
2019-05-06T09:21:55.428Z,9.92
2019-05-06T09:22:55.410Z,9.99
2019-05-06T09:23:55.399Z,10.01
2019-05-06T09:24:55.403Z,10.14
2019-05-06T09:25:55.380Z,10.32
2019-05-06T09:26:55.377Z,10.38
2019-05-06T09:27:55.356Z,10.46
2019-05-06T09:28:55.347Z,10.66
2019-05-06T09:29:55.369Z,10.75
2019-05-06T09:30:55.326Z,10.90
2019-05-06T09:31:55.316Z,10.81
2019-05-06T09:32:55.305Z,10.86
2019-05-06T09:33:55.291Z,11.03
2019-05-06T09:34:55.285Z,11.09
2019-05-06T09:35:55.286Z,11.05
2019-05-06T09:36:55.262Z,10.83
2019-05-06T09:37:55.252Z,10.81
2019-05-06T09:38:55.245Z,10.88
2019-05-06T09:39:55.244Z,10.81
2019-05-06T09:40:55.224Z,10.80
2019-05-06T09:41:57.998Z,10.80
2019-05-06T09:42:55.199Z,10.87
2019-05-06T09:43:55.188Z,10.66
2019-05-06T09:44:55.178Z,10.46
2019-05-06T09:45:55.190Z,10.39
2019-05-06T09:46:55.154Z,10.43
2019-05-06T09:47:55.146Z,10.29
2019-05-06T09:48:55.131Z,10.18
2019-05-06T09:49:55.121Z,10.29
2019-05-06T09:50:55.115Z,10.36
2019-05-06T09:51:55.114Z,10.29
2019-05-06T09:52:55.091Z,10.18
2019-05-06T09:53:55.076Z,10.22
2019-05-06T09:54:55.075Z,10.13
2019-05-06T09:55:55.064Z,10.25
2019-05-06T09:56:55.063Z,10.11
2019-05-06T09:57:55.044Z,10.13
2019-05-06T09:58:55.027Z,10.13
2019-05-06T09:59:55.014Z,10.22
2019-05-06T10:00:55.001Z,10.24
2019-05-06T10:01:55.005Z,10.29
2019-05-06T10:02:54.991Z,10.35
2019-05-06T10:03:54.995Z,10.54
2019-05-06T10:04:54.958Z,10.86
2019-05-06T10:05:54.955Z,10.90
2019-05-06T10:06:59.824Z,11.06
2019-05-06T10:07:55.926Z,11.11
2019-05-06T10:08:54.939Z,11.17
2019-05-06T10:09:54.912Z,11.17
2019-05-06T10:10:59.497Z,11.16
2019-05-06T10:11:55.885Z,11.13
2019-05-06T10:12:54.881Z,11.23
2019-05-06T10:13:54.876Z,11.36
2019-05-06T10:14:54.873Z,11.46
2019-05-06T10:15:57.562Z,11.51
2019-05-06T10:16:54.839Z,11.63
2019-05-06T10:17:54.835Z,11.75
2019-05-06T10:18:54.824Z,11.69
2019-05-06T10:19:54.837Z,11.66
2019-05-06T10:20:54.795Z,11.79
2019-05-06T10:21:54.789Z,11.70
2019-05-06T10:22:54.781Z,11.75
2019-05-06T10:23:54.796Z,11.93
2019-05-06T10:24:54.759Z,12.11
2019-05-06T10:25:54.749Z,12.25
2019-05-06T10:26:54.733Z,12.43
2019-05-06T10:27:57.215Z,12.51
2019-05-06T10:28:54.733Z,12.77
2019-05-06T10:29:54.707Z,12.71
2019-05-06T10:30:54.701Z,12.80
2019-05-06T10:31:54.683Z,12.80
2019-05-06T10:32:54.673Z,12.73
2019-05-06T10:33:54.682Z,12.70
2019-05-06T10:34:54.666Z,12.80
2019-05-06T10:35:54.651Z,12.69
2019-05-06T10:36:54.635Z,12.61
2019-05-06T10:37:54.624Z,12.54
2019-05-06T10:38:54.642Z,12.34
2019-05-06T10:39:54.605Z,12.34
2019-05-06T10:41:00.960Z,12.13
2019-05-06T10:41:55.580Z,12.23
2019-05-06T10:42:54.573Z,12.23
2019-05-06T10:43:54.571Z,12.15
2019-05-06T10:44:54.566Z,12.08
2019-05-06T10:45:54.536Z,12.31
2019-05-06T10:46:54.531Z,12.51
2019-05-06T10:47:54.518Z,12.54
2019-05-06T10:48:54.523Z,12.46
2019-05-06T10:49:54.496Z,12.29
2019-05-06T10:50:54.486Z,12.07
2019-05-06T10:51:54.472Z,12.05
2019-05-06T10:52:54.475Z,12.05
2019-05-06T10:53:54.451Z,12.13
2019-05-06T10:54:54.453Z,12.26
2019-05-06T10:55:54.432Z,12.26
2019-05-06T10:56:57.207Z,12.36
2019-05-06T10:57:54.423Z,12.41
2019-05-06T10:58:54.398Z,12.38
2019-05-06T10:59:54.389Z,12.40
2019-05-06T11:00:54.404Z,12.23
2019-05-06T11:02:15.394Z,12.25
2019-05-06T11:02:54.357Z,12.30
2019-05-06T11:03:54.348Z,12.43
2019-05-06T11:04:54.335Z,12.46
2019-05-06T11:05:54.322Z,12.49
2019-05-06T11:06:54.324Z,12.55
2019-05-06T11:07:54.303Z,12.56
2019-05-06T11:08:54.290Z,12.54
2019-05-06T11:09:54.285Z,12.55
2019-05-06T11:10:54.285Z,12.52
2019-05-06T11:11:54.260Z,12.70
2019-05-06T11:12:54.248Z,12.89
2019-05-06T11:13:54.248Z,12.89
2019-05-06T11:14:55.806Z,12.88
2019-05-06T11:15:55.683Z,12.96
2019-05-06T11:16:54.206Z,12.99
2019-05-06T11:17:54.200Z,13.03
2019-05-06T11:18:54.193Z,13.17
2019-05-06T11:19:54.183Z,13.22
2019-05-06T11:20:56.186Z,13.03
2019-05-06T11:21:54.172Z,12.88
2019-05-06T11:22:54.158Z,12.74
2019-05-06T11:23:54.147Z,12.85
2019-05-06T11:24:54.121Z,12.87
2019-05-06T11:25:54.119Z,12.99
2019-05-06T11:26:54.165Z,13.17
2019-05-06T11:27:54.094Z,13.19
2019-05-06T11:28:54.094Z,13.13
2019-05-06T11:29:54.090Z,13.04
2019-05-06T11:30:54.062Z,12.80
2019-05-06T11:31:54.386Z,12.77
2019-05-06T11:32:54.789Z,12.77
2019-05-06T11:33:54.043Z,12.69
2019-05-06T11:34:54.020Z,12.84
2019-05-06T11:35:54.020Z,12.89
2019-05-06T11:36:54.008Z,13.03
2019-05-06T11:37:54.427Z,13.09
2019-05-06T11:38:53.988Z,13.01
2019-05-06T11:39:53.969Z,12.88
2019-05-06T11:40:53.952Z,12.79
2019-05-06T11:42:14.831Z,12.73
2019-05-06T11:42:54.942Z,12.84
2019-05-06T11:43:53.939Z,12.79
2019-05-06T11:44:53.928Z,12.89
2019-05-06T11:45:53.895Z,12.92
2019-05-06T11:46:53.916Z,12.96
2019-05-06T11:47:55.793Z,12.80
2019-05-06T11:48:53.864Z,12.61
2019-05-06T11:49:56.272Z,12.46
2019-05-06T11:50:53.848Z,12.23
2019-05-06T11:51:53.836Z,12.21
2019-05-06T11:52:55.905Z,12.07
2019-05-06T11:53:54.277Z,12.15
2019-05-06T11:54:53.803Z,12.16
2019-05-06T11:55:54.933Z,12.15
2019-05-06T11:56:58.229Z,12.15
2019-05-06T11:57:53.780Z,12.12
2019-05-06T11:58:53.755Z,12.08
2019-05-06T11:59:53.751Z,12.12
2019-05-06T12:00:53.736Z,12.23
2019-05-06T12:01:53.726Z,12.21
2019-05-06T12:02:53.728Z,12.37
2019-05-06T12:03:53.699Z,12.51
2019-05-06T12:04:53.689Z,12.46
2019-05-06T12:05:53.677Z,12.44
2019-05-06T12:07:09.212Z,12.52
2019-05-06T12:08:06.921Z,12.48
2019-05-06T12:08:54.650Z,12.38
2019-05-06T12:09:54.400Z,12.44
2019-05-06T12:10:53.627Z,12.49
2019-05-06T12:11:53.612Z,12.56
2019-05-06T12:12:53.601Z,12.51
2019-05-06T12:13:53.604Z,12.36
2019-05-06T12:14:53.581Z,12.25
2019-05-06T12:15:53.572Z,12.12
2019-05-06T12:16:55.147Z,12.15
2019-05-06T12:17:53.623Z,11.94
2019-05-06T12:18:53.542Z,11.74
2019-05-06T12:19:53.540Z,11.64
2019-05-06T12:20:53.523Z,11.66
2019-05-06T12:21:53.503Z,11.51
2019-05-06T12:22:53.505Z,11.36
2019-05-06T12:23:53.934Z,11.28
2019-05-06T12:24:53.471Z,11.21
2019-05-06T12:25:53.459Z,11.13
2019-05-06T12:26:53.448Z,11.09
2019-05-06T12:27:53.450Z,11.03
2019-05-06T12:28:53.472Z,11.08
2019-05-06T12:29:53.417Z,11.06
2019-05-06T12:30:53.406Z,10.94
2019-05-06T12:31:53.396Z,11.11
2019-05-06T12:32:53.417Z,11.06
2019-05-06T12:33:53.607Z,11.01
2019-05-06T12:34:53.360Z,10.91
2019-05-06T12:35:53.354Z,10.86
2019-05-06T12:36:53.345Z,10.80
2019-05-06T12:37:53.334Z,10.69
2019-05-06T12:38:53.344Z,10.72
2019-05-06T12:39:53.528Z,10.68
2019-05-06T12:40:53.295Z,10.75
2019-05-06T12:41:53.590Z,10.66
2019-05-06T12:42:53.664Z,10.69
2019-05-06T12:43:53.261Z,10.76
2019-05-06T12:44:53.263Z,10.60
2019-05-06T12:45:53.242Z,10.51
2019-05-06T12:46:53.323Z,10.47
2019-05-06T12:47:53.518Z,10.49
2019-05-06T12:48:53.212Z,10.43
2019-05-06T12:49:53.555Z,10.46
2019-05-06T12:50:53.184Z,10.47
2019-05-06T12:51:53.766Z,10.51
2019-05-06T12:52:53.181Z,10.47
2019-05-06T12:53:53.163Z,10.51
2019-05-06T12:54:54.277Z,10.35
2019-05-06T12:55:54.131Z,10.38
2019-05-06T12:56:53.122Z,10.35
2019-05-06T12:57:53.283Z,10.32
2019-05-06T12:58:53.102Z,10.26
2019-05-06T12:59:53.228Z,10.31
2019-05-06T13:00:54.275Z,10.35
2019-05-06T13:01:54.003Z,10.31
2019-05-06T13:02:53.316Z,10.34
2019-05-06T13:03:53.062Z,10.32
2019-05-06T13:04:59.803Z,10.35
2019-05-06T13:05:54.022Z,10.36
2019-05-06T13:06:53.039Z,10.26
2019-05-06T13:07:53.009Z,10.31
2019-05-06T13:09:01.004Z,10.29